sensor_id;sensor_type;location;lat;lon;timestamp;P1;durP1;ratioP1;P2;durP2;ratioP2
71606;SDS011;60641;53.556;9.914;2023-07-29T00:01:36;7.40;;;2.50;;
71606;SDS011;60641;53.556;9.914;2023-07-29T00:04:03;6.10;;;2.60;;
71606;SDS011;60641;53.556;9.914;2023-07-29T00:06:29;6.60;;;2.80;;
71606;SDS011;60641;53.556;9.914;2023-07-29T00:08:56;5.20;;;2.30;;
71606;SDS011;60641;53.556;9.914;2023-07-29T00:11:22;5.70;;;2.40;;
71606;SDS011;60641;53.556;9.914;2023-07-29T00:13:48;5.50;;;2.20;;
71606;SDS011;60641;53.556;9.914;2023-07-29T00:16:16;6.10;;;2.60;;
71606;SDS011;60641;53.556;9.914;2023-07-29T00:18:43;5.90;;;2.50;;
71606;SDS011;60641;53.556;9.914;2023-07-29T00:21:10;7.40;;;3.30;;
71606;SDS011;60641;53.556;9.914;2023-07-29T00:23:37;6.60;;;2.90;;
71606;SDS011;60641;53.556;9.914;2023-07-29T00:26:03;7.30;;;2.70;;
71606;SDS011;60641;53.556;9.914;2023-07-29T00:28:30;7.20;;;2.80;;
71606;SDS011;60641;53.556;9.914;2023-07-29T00:30:56;7.70;;;3.00;;
71606;SDS011;60641;53.556;9.914;2023-07-29T00:33:22;8.40;;;3.30;;
71606;SDS011;60641;53.556;9.914;2023-07-29T00:35:49;8.20;;;2.70;;
71606;SDS011;60641;53.556;9.914;2023-07-29T00:38:16;10.10;;;3.20;;
71606;SDS011;60641;53.556;9.914;2023-07-29T00:40:42;6.60;;;3.00;;
71606;SDS011;60641;53.556;9.914;2023-07-29T00:43:09;7.30;;;3.20;;
71606;SDS011;60641;53.556;9.914;2023-07-29T00:45:35;7.30;;;3.10;;
71606;SDS011;60641;53.556;9.914;2023-07-29T00:48:02;7.10;;;3.20;;
71606;SDS011;60641;53.556;9.914;2023-07-29T00:50:29;7.20;;;3.20;;
71606;SDS011;60641;53.556;9.914;2023-07-29T00:52:57;10.70;;;3.40;;
71606;SDS011;60641;53.556;9.914;2023-07-29T00:55:23;7.50;;;3.40;;
71606;SDS011;60641;53.556;9.914;2023-07-29T00:57:50;8.50;;;2.90;;
71606;SDS011;60641;53.556;9.914;2023-07-29T01:00:20;7.50;;;3.30;;
71606;SDS011;60641;53.556;9.914;2023-07-29T01:02:47;7.20;;;3.40;;
71606;SDS011;60641;53.556;9.914;2023-07-29T01:05:14;8.70;;;3.90;;
71606;SDS011;60641;53.556;9.914;2023-07-29T01:07:44;6.50;;;3.20;;
71606;SDS011;60641;53.556;9.914;2023-07-29T01:12:56;7.20;;;3.40;;
71606;SDS011;60641;53.556;9.914;2023-07-29T01:18:28;6.70;;;3.50;;
71606;SDS011;60641;53.556;9.914;2023-07-29T01:21:00;8.30;;;3.70;;
71606;SDS011;60641;53.556;9.914;2023-07-29T01:23:31;7.30;;;3.60;;
71606;SDS011;60641;53.556;9.914;2023-07-29T01:25:59;8.20;;;3.60;;
71606;SDS011;60641;53.556;9.914;2023-07-29T01:28:26;7.60;;;3.50;;
71606;SDS011;60641;53.556;9.914;2023-07-29T01:31:03;8.30;;;3.50;;
71606;SDS011;60641;53.556;9.914;2023-07-29T01:33:35;8.10;;;3.70;;
71606;SDS011;60641;53.556;9.914;2023-07-29T01:36:07;8.10;;;3.60;;
71606;SDS011;60641;53.556;9.914;2023-07-29T01:38:41;8.10;;;3.80;;
71606;SDS011;60641;53.556;9.914;2023-07-29T01:41:09;8.20;;;3.70;;
71606;SDS011;60641;53.556;9.914;2023-07-29T01:43:36;9.60;;;3.20;;
71606;SDS011;60641;53.556;9.914;2023-07-29T01:46:10;9.20;;;4.00;;
71606;SDS011;60641;53.556;9.914;2023-07-29T01:48:38;9.00;;;3.80;;
71606;SDS011;60641;53.556;9.914;2023-07-29T01:51:05;6.80;;;3.30;;
71606;SDS011;60641;53.556;9.914;2023-07-29T01:53:32;8.20;;;3.80;;
71606;SDS011;60641;53.556;9.914;2023-07-29T01:55:59;8.20;;;3.90;;
71606;SDS011;60641;53.556;9.914;2023-07-29T01:58:25;8.90;;;3.70;;
71606;SDS011;60641;53.556;9.914;2023-07-29T02:00:52;9.00;;;3.80;;
71606;SDS011;60641;53.556;9.914;2023-07-29T02:03:18;8.40;;;4.30;;
71606;SDS011;60641;53.556;9.914;2023-07-29T02:05:44;8.20;;;4.10;;
71606;SDS011;60641;53.556;9.914;2023-07-29T02:08:11;7.40;;;3.90;;
71606;SDS011;60641;53.556;9.914;2023-07-29T02:10:37;8.60;;;4.30;;
71606;SDS011;60641;53.556;9.914;2023-07-29T02:13:04;9.10;;;4.60;;
71606;SDS011;60641;53.556;9.914;2023-07-29T02:15:30;8.60;;;4.30;;
71606;SDS011;60641;53.556;9.914;2023-07-29T02:17:57;7.70;;;4.40;;
71606;SDS011;60641;53.556;9.914;2023-07-29T02:20:25;8.00;;;4.20;;
71606;SDS011;60641;53.556;9.914;2023-07-29T02:22:51;8.40;;;3.80;;
71606;SDS011;60641;53.556;9.914;2023-07-29T02:25:18;7.90;;;4.30;;
71606;SDS011;60641;53.556;9.914;2023-07-29T02:27:44;8.80;;;4.30;;
71606;SDS011;60641;53.556;9.914;2023-07-29T02:30:11;8.20;;;4.80;;
71606;SDS011;60641;53.556;9.914;2023-07-29T02:32:38;7.80;;;4.30;;
71606;SDS011;60641;53.556;9.914;2023-07-29T02:35:05;10.00;;;4.90;;
71606;SDS011;60641;53.556;9.914;2023-07-29T02:37:31;9.20;;;5.30;;
71606;SDS011;60641;53.556;9.914;2023-07-29T02:39:58;8.70;;;4.80;;
71606;SDS011;60641;53.556;9.914;2023-07-29T02:42:24;8.70;;;5.00;;
71606;SDS011;60641;53.556;9.914;2023-07-29T02:44:50;9.70;;;5.40;;
71606;SDS011;60641;53.556;9.914;2023-07-29T02:47:17;9.50;;;5.60;;
71606;SDS011;60641;53.556;9.914;2023-07-29T02:49:43;8.80;;;5.30;;
71606;SDS011;60641;53.556;9.914;2023-07-29T02:52:10;9.10;;;4.90;;
71606;SDS011;60641;53.556;9.914;2023-07-29T02:54:36;8.30;;;5.00;;
71606;SDS011;60641;53.556;9.914;2023-07-29T02:57:03;10.00;;;4.40;;
71606;SDS011;60641;53.556;9.914;2023-07-29T02:59:30;7.60;;;4.70;;
71606;SDS011;60641;53.556;9.914;2023-07-29T03:01:56;8.40;;;4.40;;
71606;SDS011;60641;53.556;9.914;2023-07-29T03:04:23;8.00;;;4.70;;
71606;SDS011;60641;53.556;9.914;2023-07-29T03:06:49;7.90;;;4.30;;
71606;SDS011;60641;53.556;9.914;2023-07-29T03:09:16;8.10;;;4.50;;
71606;SDS011;60641;53.556;9.914;2023-07-29T03:11:42;10.50;;;5.00;;
71606;SDS011;60641;53.556;9.914;2023-07-29T03:14:08;8.20;;;4.70;;
71606;SDS011;60641;53.556;9.914;2023-07-29T03:16:35;10.00;;;4.80;;
71606;SDS011;60641;53.556;9.914;2023-07-29T03:19:01;8.70;;;5.20;;
71606;SDS011;60641;53.556;9.914;2023-07-29T03:21:28;9.50;;;5.20;;
71606;SDS011;60641;53.556;9.914;2023-07-29T03:23:54;9.50;;;4.70;;
71606;SDS011;60641;53.556;9.914;2023-07-29T03:26:20;9.40;;;4.90;;
71606;SDS011;60641;53.556;9.914;2023-07-29T03:28:47;8.30;;;4.70;;
71606;SDS011;60641;53.556;9.914;2023-07-29T03:31:13;10.40;;;5.80;;
71606;SDS011;60641;53.556;9.914;2023-07-29T03:33:40;9.00;;;5.70;;
71606;SDS011;60641;53.556;9.914;2023-07-29T03:36:06;9.60;;;5.40;;
71606;SDS011;60641;53.556;9.914;2023-07-29T03:38:32;10.50;;;5.50;;
71606;SDS011;60641;53.556;9.914;2023-07-29T03:41:01;10.80;;;5.80;;
71606;SDS011;60641;53.556;9.914;2023-07-29T03:43:28;9.50;;;5.80;;
71606;SDS011;60641;53.556;9.914;2023-07-29T03:45:55;10.60;;;6.00;;
71606;SDS011;60641;53.556;9.914;2023-07-29T03:48:21;10.90;;;5.90;;
71606;SDS011;60641;53.556;9.914;2023-07-29T03:50:48;11.40;;;6.10;;
71606;SDS011;60641;53.556;9.914;2023-07-29T03:53:14;12.50;;;6.90;;
71606;SDS011;60641;53.556;9.914;2023-07-29T03:55:41;11.40;;;7.00;;
71606;SDS011;60641;53.556;9.914;2023-07-29T03:58:07;14.70;;;7.50;;
71606;SDS011;60641;53.556;9.914;2023-07-29T04:00:34;12.80;;;8.10;;
71606;SDS011;60641;53.556;9.914;2023-07-29T04:03:00;12.40;;;8.10;;
71606;SDS011;60641;53.556;9.914;2023-07-29T04:05:27;11.50;;;7.90;;
71606;SDS011;60641;53.556;9.914;2023-07-29T04:07:53;13.00;;;8.30;;
71606;SDS011;60641;53.556;9.914;2023-07-29T04:10:20;13.00;;;8.20;;
71606;SDS011;60641;53.556;9.914;2023-07-29T04:12:46;14.90;;;9.00;;
71606;SDS011;60641;53.556;9.914;2023-07-29T04:15:12;14.30;;;8.80;;
71606;SDS011;60641;53.556;9.914;2023-07-29T04:17:39;14.20;;;9.30;;
71606;SDS011;60641;53.556;9.914;2023-07-29T04:20:05;14.60;;;9.50;;
71606;SDS011;60641;53.556;9.914;2023-07-29T04:22:33;14.40;;;9.70;;
71606;SDS011;60641;53.556;9.914;2023-07-29T04:25:00;17.00;;;9.60;;
71606;SDS011;60641;53.556;9.914;2023-07-29T04:27:26;17.80;;;11.50;;
71606;SDS011;60641;53.556;9.914;2023-07-29T04:29:53;17.70;;;10.60;;
71606;SDS011;60641;53.556;9.914;2023-07-29T04:32:19;16.80;;;10.50;;
71606;SDS011;60641;53.556;9.914;2023-07-29T04:34:46;16.70;;;10.90;;
71606;SDS011;60641;53.556;9.914;2023-07-29T04:37:12;18.00;;;11.60;;
71606;SDS011;60641;53.556;9.914;2023-07-29T04:39:38;16.70;;;11.60;;
71606;SDS011;60641;53.556;9.914;2023-07-29T04:42:05;17.50;;;11.00;;
71606;SDS011;60641;53.556;9.914;2023-07-29T04:44:31;17.20;;;11.30;;
71606;SDS011;60641;53.556;9.914;2023-07-29T04:46:58;19.20;;;11.70;;
71606;SDS011;60641;53.556;9.914;2023-07-29T04:49:24;17.40;;;11.50;;
71606;SDS011;60641;53.556;9.914;2023-07-29T04:51:51;17.60;;;11.10;;
71606;SDS011;60641;53.556;9.914;2023-07-29T04:54:17;16.80;;;11.50;;
71606;SDS011;60641;53.556;9.914;2023-07-29T04:56:46;16.40;;;11.60;;
71606;SDS011;60641;53.556;9.914;2023-07-29T04:59:13;16.90;;;11.30;;
71606;SDS011;60641;53.556;9.914;2023-07-29T05:01:39;18.10;;;12.00;;
71606;SDS011;60641;53.556;9.914;2023-07-29T05:04:08;18.80;;;11.50;;
71606;SDS011;60641;53.556;9.914;2023-07-29T05:06:35;16.90;;;11.20;;
71606;SDS011;60641;53.556;9.914;2023-07-29T05:09:14;17.20;;;11.60;;
71606;SDS011;60641;53.556;9.914;2023-07-29T05:11:42;17.10;;;10.90;;
71606;SDS011;60641;53.556;9.914;2023-07-29T05:14:11;16.50;;;11.60;;
71606;SDS011;60641;53.556;9.914;2023-07-29T05:16:38;18.50;;;11.30;;
71606;SDS011;60641;53.556;9.914;2023-07-29T05:19:04;18.40;;;11.10;;
71606;SDS011;60641;53.556;9.914;2023-07-29T05:21:31;18.60;;;11.80;;
71606;SDS011;60641;53.556;9.914;2023-07-29T05:23:57;18.20;;;11.80;;
71606;SDS011;60641;53.556;9.914;2023-07-29T05:26:24;16.90;;;11.70;;
71606;SDS011;60641;53.556;9.914;2023-07-29T05:28:50;18.60;;;11.90;;
71606;SDS011;60641;53.556;9.914;2023-07-29T05:31:17;16.00;;;11.30;;
71606;SDS011;60641;53.556;9.914;2023-07-29T05:33:44;20.30;;;11.70;;
71606;SDS011;60641;53.556;9.914;2023-07-29T05:36:10;18.50;;;11.30;;
71606;SDS011;60641;53.556;9.914;2023-07-29T05:38:36;17.10;;;11.10;;
71606;SDS011;60641;53.556;9.914;2023-07-29T05:41:03;17.60;;;11.60;;
71606;SDS011;60641;53.556;9.914;2023-07-29T05:43:29;20.60;;;11.60;;
71606;SDS011;60641;53.556;9.914;2023-07-29T05:45:55;20.80;;;10.90;;
71606;SDS011;60641;53.556;9.914;2023-07-29T05:48:22;16.30;;;10.40;;
71606;SDS011;60641;53.556;9.914;2023-07-29T05:50:48;15.80;;;10.60;;
71606;SDS011;60641;53.556;9.914;2023-07-29T05:53:15;16.70;;;11.00;;
71606;SDS011;60641;53.556;9.914;2023-07-29T05:55:41;17.30;;;10.90;;
71606;SDS011;60641;53.556;9.914;2023-07-29T05:58:08;17.10;;;10.80;;
71606;SDS011;60641;53.556;9.914;2023-07-29T06:00:35;15.90;;;10.40;;
71606;SDS011;60641;53.556;9.914;2023-07-29T06:03:02;15.80;;;10.30;;
71606;SDS011;60641;53.556;9.914;2023-07-29T06:05:28;19.00;;;11.40;;
71606;SDS011;60641;53.556;9.914;2023-07-29T06:07:55;15.10;;;10.40;;
71606;SDS011;60641;53.556;9.914;2023-07-29T06:10:23;18.00;;;12.00;;
71606;SDS011;60641;53.556;9.914;2023-07-29T06:12:49;18.20;;;11.40;;
71606;SDS011;60641;53.556;9.914;2023-07-29T06:15:16;17.20;;;11.40;;
71606;SDS011;60641;53.556;9.914;2023-07-29T06:17:42;16.20;;;11.30;;
71606;SDS011;60641;53.556;9.914;2023-07-29T06:20:09;16.10;;;11.00;;
71606;SDS011;60641;53.556;9.914;2023-07-29T06:22:36;16.90;;;10.80;;
71606;SDS011;60641;53.556;9.914;2023-07-29T06:25:03;17.10;;;10.40;;
71606;SDS011;60641;53.556;9.914;2023-07-29T06:27:29;16.40;;;11.10;;
71606;SDS011;60641;53.556;9.914;2023-07-29T06:29:56;18.20;;;10.60;;
71606;SDS011;60641;53.556;9.914;2023-07-29T06:32:22;19.20;;;11.10;;
71606;SDS011;60641;53.556;9.914;2023-07-29T06:34:49;16.90;;;11.50;;
71606;SDS011;60641;53.556;9.914;2023-07-29T06:37:17;17.30;;;12.00;;
71606;SDS011;60641;53.556;9.914;2023-07-29T06:39:43;17.60;;;11.10;;
71606;SDS011;60641;53.556;9.914;2023-07-29T06:42:10;16.30;;;10.80;;
71606;SDS011;60641;53.556;9.914;2023-07-29T06:44:36;16.00;;;10.90;;
71606;SDS011;60641;53.556;9.914;2023-07-29T06:47:03;16.60;;;11.70;;
71606;SDS011;60641;53.556;9.914;2023-07-29T06:49:29;16.90;;;11.70;;
71606;SDS011;60641;53.556;9.914;2023-07-29T06:51:56;16.50;;;12.10;;
71606;SDS011;60641;53.556;9.914;2023-07-29T06:54:25;15.60;;;10.70;;
71606;SDS011;60641;53.556;9.914;2023-07-29T06:56:55;18.10;;;11.90;;
71606;SDS011;60641;53.556;9.914;2023-07-29T06:59:21;21.60;;;12.20;;
71606;SDS011;60641;53.556;9.914;2023-07-29T07:01:48;18.30;;;12.30;;
71606;SDS011;60641;53.556;9.914;2023-07-29T07:04:14;18.30;;;12.20;;
71606;SDS011;60641;53.556;9.914;2023-07-29T07:06:41;18.40;;;11.90;;
71606;SDS011;60641;53.556;9.914;2023-07-29T07:09:07;18.30;;;11.60;;
71606;SDS011;60641;53.556;9.914;2023-07-29T07:11:33;17.00;;;11.90;;
71606;SDS011;60641;53.556;9.914;2023-07-29T07:14:00;18.90;;;11.90;;
71606;SDS011;60641;53.556;9.914;2023-07-29T07:16:26;17.70;;;11.90;;
71606;SDS011;60641;53.556;9.914;2023-07-29T07:18:56;19.00;;;10.90;;
71606;SDS011;60641;53.556;9.914;2023-07-29T07:21:23;19.40;;;11.40;;
71606;SDS011;60641;53.556;9.914;2023-07-29T07:23:50;16.40;;;11.30;;
71606;SDS011;60641;53.556;9.914;2023-07-29T07:26:16;18.60;;;11.50;;
71606;SDS011;60641;53.556;9.914;2023-07-29T07:28:43;15.60;;;10.60;;
71606;SDS011;60641;53.556;9.914;2023-07-29T07:31:09;16.40;;;10.70;;
71606;SDS011;60641;53.556;9.914;2023-07-29T07:33:36;16.00;;;9.80;;
71606;SDS011;60641;53.556;9.914;2023-07-29T07:36:02;18.90;;;10.50;;
71606;SDS011;60641;53.556;9.914;2023-07-29T07:38:29;17.70;;;9.60;;
71606;SDS011;60641;53.556;9.914;2023-07-29T07:40:55;15.20;;;8.90;;
71606;SDS011;60641;53.556;9.914;2023-07-29T07:43:23;13.10;;;9.10;;
71606;SDS011;60641;53.556;9.914;2023-07-29T07:45:49;15.50;;;9.90;;
71606;SDS011;60641;53.556;9.914;2023-07-29T07:48:16;14.80;;;8.90;;
71606;SDS011;60641;53.556;9.914;2023-07-29T07:50:43;15.80;;;9.40;;
71606;SDS011;60641;53.556;9.914;2023-07-29T07:53:09;14.80;;;9.10;;
71606;SDS011;60641;53.556;9.914;2023-07-29T07:55:36;15.70;;;8.40;;
71606;SDS011;60641;53.556;9.914;2023-07-29T07:58:02;14.40;;;8.70;;
71606;SDS011;60641;53.556;9.914;2023-07-29T08:00:29;14.00;;;8.30;;
71606;SDS011;60641;53.556;9.914;2023-07-29T08:02:55;15.60;;;8.50;;
71606;SDS011;60641;53.556;9.914;2023-07-29T08:05:21;14.10;;;8.50;;
71606;SDS011;60641;53.556;9.914;2023-07-29T08:07:48;12.80;;;8.10;;
71606;SDS011;60641;53.556;9.914;2023-07-29T08:10:14;13.50;;;7.90;;
71606;SDS011;60641;53.556;9.914;2023-07-29T08:12:41;13.40;;;8.50;;
71606;SDS011;60641;53.556;9.914;2023-07-29T08:15:07;12.60;;;8.30;;
71606;SDS011;60641;53.556;9.914;2023-07-29T08:17:34;13.50;;;8.90;;
71606;SDS011;60641;53.556;9.914;2023-07-29T08:20:00;13.80;;;8.50;;
71606;SDS011;60641;53.556;9.914;2023-07-29T08:22:27;11.80;;;8.00;;
71606;SDS011;60641;53.556;9.914;2023-07-29T08:24:53;12.20;;;7.50;;
71606;SDS011;60641;53.556;9.914;2023-07-29T08:27:19;11.60;;;7.50;;
71606;SDS011;60641;53.556;9.914;2023-07-29T08:29:46;12.20;;;7.50;;
71606;SDS011;60641;53.556;9.914;2023-07-29T08:32:12;13.00;;;7.60;;
71606;SDS011;60641;53.556;9.914;2023-07-29T08:34:39;14.50;;;8.20;;
71606;SDS011;60641;53.556;9.914;2023-07-29T08:37:05;14.10;;;8.20;;
71606;SDS011;60641;53.556;9.914;2023-07-29T08:39:32;12.70;;;7.90;;
71606;SDS011;60641;53.556;9.914;2023-07-29T08:42:04;12.90;;;7.80;;
71606;SDS011;60641;53.556;9.914;2023-07-29T08:44:38;14.10;;;8.50;;
71606;SDS011;60641;53.556;9.914;2023-07-29T08:47:07;13.80;;;8.50;;
71606;SDS011;60641;53.556;9.914;2023-07-29T08:49:34;12.90;;;8.70;;
71606;SDS011;60641;53.556;9.914;2023-07-29T08:52:00;15.30;;;8.70;;
71606;SDS011;60641;53.556;9.914;2023-07-29T08:54:27;16.50;;;9.20;;
71606;SDS011;60641;53.556;9.914;2023-07-29T08:56:54;13.80;;;9.30;;
71606;SDS011;60641;53.556;9.914;2023-07-29T08:59:20;14.00;;;8.90;;
71606;SDS011;60641;53.556;9.914;2023-07-29T09:01:47;14.40;;;9.50;;
71606;SDS011;60641;53.556;9.914;2023-07-29T09:04:14;15.20;;;8.70;;
71606;SDS011;60641;53.556;9.914;2023-07-29T09:06:41;15.80;;;9.70;;
71606;SDS011;60641;53.556;9.914;2023-07-29T09:09:09;12.50;;;8.70;;
71606;SDS011;60641;53.556;9.914;2023-07-29T09:11:35;13.70;;;9.20;;
71606;SDS011;60641;53.556;9.914;2023-07-29T09:14:02;19.20;;;11.00;;
71606;SDS011;60641;53.556;9.914;2023-07-29T09:16:28;13.50;;;9.30;;
71606;SDS011;60641;53.556;9.914;2023-07-29T09:18:55;17.70;;;11.30;;
71606;SDS011;60641;53.556;9.914;2023-07-29T09:21:23;14.40;;;9.50;;
71606;SDS011;60641;53.556;9.914;2023-07-29T09:23:55;13.90;;;9.10;;
71606;SDS011;60641;53.556;9.914;2023-07-29T09:26:25;12.80;;;8.60;;
71606;SDS011;60641;53.556;9.914;2023-07-29T09:28:56;15.30;;;9.40;;
71606;SDS011;60641;53.556;9.914;2023-07-29T09:31:23;14.30;;;9.70;;
71606;SDS011;60641;53.556;9.914;2023-07-29T09:34:01;15.20;;;9.40;;
71606;SDS011;60641;53.556;9.914;2023-07-29T09:36:32;16.60;;;9.10;;
71606;SDS011;60641;53.556;9.914;2023-07-29T09:38:59;15.20;;;8.60;;
71606;SDS011;60641;53.556;9.914;2023-07-29T09:41:26;12.90;;;7.70;;
71606;SDS011;60641;53.556;9.914;2023-07-29T09:43:55;12.20;;;8.10;;
71606;SDS011;60641;53.556;9.914;2023-07-29T09:46:23;12.20;;;8.10;;
71606;SDS011;60641;53.556;9.914;2023-07-29T09:48:53;13.50;;;6.80;;
71606;SDS011;60641;53.556;9.914;2023-07-29T09:51:23;12.20;;;5.80;;
71606;SDS011;60641;53.556;9.914;2023-07-29T09:53:50;9.60;;;6.10;;
71606;SDS011;60641;53.556;9.914;2023-07-29T09:56:18;12.50;;;5.80;;
71606;SDS011;60641;53.556;9.914;2023-07-29T09:58:52;8.80;;;5.60;;
71606;SDS011;60641;53.556;9.914;2023-07-29T10:01:18;10.20;;;5.80;;
71606;SDS011;60641;53.556;9.914;2023-07-29T10:03:45;9.50;;;5.70;;
71606;SDS011;60641;53.556;9.914;2023-07-29T10:06:12;10.10;;;4.90;;
71606;SDS011;60641;53.556;9.914;2023-07-29T10:08:40;9.40;;;5.00;;
71606;SDS011;60641;53.556;9.914;2023-07-29T10:11:09;8.70;;;4.40;;
71606;SDS011;60641;53.556;9.914;2023-07-29T10:13:37;8.40;;;5.00;;
71606;SDS011;60641;53.556;9.914;2023-07-29T10:16:04;7.80;;;4.50;;
71606;SDS011;60641;53.556;9.914;2023-07-29T10:18:32;8.00;;;4.00;;
71606;SDS011;60641;53.556;9.914;2023-07-29T10:21:00;9.50;;;4.30;;
71606;SDS011;60641;53.556;9.914;2023-07-29T10:23:27;9.40;;;4.50;;
71606;SDS011;60641;53.556;9.914;2023-07-29T10:26:02;7.30;;;3.70;;
71606;SDS011;60641;53.556;9.914;2023-07-29T10:28:32;7.10;;;3.50;;
71606;SDS011;60641;53.556;9.914;2023-07-29T10:31:00;7.30;;;3.70;;
71606;SDS011;60641;53.556;9.914;2023-07-29T10:33:28;11.90;;;3.90;;
71606;SDS011;60641;53.556;9.914;2023-07-29T10:35:56;7.30;;;3.60;;
71606;SDS011;60641;53.556;9.914;2023-07-29T10:38:23;8.10;;;3.50;;
71606;SDS011;60641;53.556;9.914;2023-07-29T10:40:51;6.50;;;3.10;;
71606;SDS011;60641;53.556;9.914;2023-07-29T10:43:26;7.70;;;3.50;;
71606;SDS011;60641;53.556;9.914;2023-07-29T10:48:57;6.50;;;3.10;;
71606;SDS011;60641;53.556;9.914;2023-07-29T10:51:28;6.20;;;2.80;;
71606;SDS011;60641;53.556;9.914;2023-07-29T10:54:10;5.90;;;2.90;;
71606;SDS011;60641;53.556;9.914;2023-07-29T10:56:41;6.90;;;2.80;;
71606;SDS011;60641;53.556;9.914;2023-07-29T11:01:39;7.00;;;2.60;;
71606;SDS011;60641;53.556;9.914;2023-07-29T11:07:29;7.20;;;2.60;;
71606;SDS011;60641;53.556;9.914;2023-07-29T11:17:35;6.70;;;2.20;;
71606;SDS011;60641;53.556;9.914;2023-07-29T11:20:13;6.30;;;2.70;;
71606;SDS011;60641;53.556;9.914;2023-07-29T11:22:41;6.10;;;2.10;;
71606;SDS011;60641;53.556;9.914;2023-07-29T11:25:08;4.00;;;1.70;;
71606;SDS011;60641;53.556;9.914;2023-07-29T11:27:37;3.50;;;1.50;;
71606;SDS011;60641;53.556;9.914;2023-07-29T11:30:05;4.10;;;1.50;;
71606;SDS011;60641;53.556;9.914;2023-07-29T11:32:36;4.20;;;1.50;;
71606;SDS011;60641;53.556;9.914;2023-07-29T11:35:14;4.90;;;2.10;;
71606;SDS011;60641;53.556;9.914;2023-07-29T11:37:43;5.40;;;2.00;;
71606;SDS011;60641;53.556;9.914;2023-07-29T11:40:15;6.10;;;3.00;;
71606;SDS011;60641;53.556;9.914;2023-07-29T11:42:42;5.40;;;2.10;;
71606;SDS011;60641;53.556;9.914;2023-07-29T11:45:09;4.80;;;2.20;;
71606;SDS011;60641;53.556;9.914;2023-07-29T11:47:36;5.80;;;2.10;;
71606;SDS011;60641;53.556;9.914;2023-07-29T11:50:04;5.70;;;2.00;;
71606;SDS011;60641;53.556;9.914;2023-07-29T11:52:32;4.70;;;2.00;;
71606;SDS011;60641;53.556;9.914;2023-07-29T11:54:59;4.90;;;2.00;;
71606;SDS011;60641;53.556;9.914;2023-07-29T11:57:28;5.10;;;2.10;;
71606;SDS011;60641;53.556;9.914;2023-07-29T11:59:55;5.40;;;2.40;;
71606;SDS011;60641;53.556;9.914;2023-07-29T12:02:22;4.90;;;2.00;;
71606;SDS011;60641;53.556;9.914;2023-07-29T12:04:49;5.00;;;1.90;;
71606;SDS011;60641;53.556;9.914;2023-07-29T12:07:16;5.50;;;2.10;;
71606;SDS011;60641;53.556;9.914;2023-07-29T12:09:43;4.80;;;1.90;;
71606;SDS011;60641;53.556;9.914;2023-07-29T12:12:10;5.30;;;2.00;;
71606;SDS011;60641;53.556;9.914;2023-07-29T12:14:38;6.80;;;2.10;;
71606;SDS011;60641;53.556;9.914;2023-07-29T12:17:05;4.50;;;1.80;;
71606;SDS011;60641;53.556;9.914;2023-07-29T12:19:33;5.70;;;1.70;;
71606;SDS011;60641;53.556;9.914;2023-07-29T12:22:03;4.20;;;1.70;;
71606;SDS011;60641;53.556;9.914;2023-07-29T12:24:33;4.50;;;1.80;;
71606;SDS011;60641;53.556;9.914;2023-07-29T12:27:02;5.70;;;1.70;;
71606;SDS011;60641;53.556;9.914;2023-07-29T12:29:28;4.70;;;1.80;;
71606;SDS011;60641;53.556;9.914;2023-07-29T12:32:02;4.70;;;1.80;;
71606;SDS011;60641;53.556;9.914;2023-07-29T12:34:30;6.10;;;1.80;;
71606;SDS011;60641;53.556;9.914;2023-07-29T12:36:58;3.40;;;1.60;;
71606;SDS011;60641;53.556;9.914;2023-07-29T12:39:26;3.80;;;1.50;;
71606;SDS011;60641;53.556;9.914;2023-07-29T12:41:55;5.70;;;1.40;;
71606;SDS011;60641;53.556;9.914;2023-07-29T12:44:22;6.00;;;1.90;;
71606;SDS011;60641;53.556;9.914;2023-07-29T12:46:49;3.00;;;1.50;;
71606;SDS011;60641;53.556;9.914;2023-07-29T12:49:16;3.50;;;1.50;;
71606;SDS011;60641;53.556;9.914;2023-07-29T12:51:43;3.70;;;1.40;;
71606;SDS011;60641;53.556;9.914;2023-07-29T12:54:09;3.20;;;1.50;;
71606;SDS011;60641;53.556;9.914;2023-07-29T12:56:35;4.90;;;1.50;;
71606;SDS011;60641;53.556;9.914;2023-07-29T12:59:02;6.10;;;1.60;;
71606;SDS011;60641;53.556;9.914;2023-07-29T13:01:29;3.10;;;1.40;;
71606;SDS011;60641;53.556;9.914;2023-07-29T13:03:56;6.50;;;1.50;;
71606;SDS011;60641;53.556;9.914;2023-07-29T13:06:22;3.70;;;1.30;;
71606;SDS011;60641;53.556;9.914;2023-07-29T13:08:49;4.20;;;1.40;;
71606;SDS011;60641;53.556;9.914;2023-07-29T13:11:16;3.00;;;1.20;;
71606;SDS011;60641;53.556;9.914;2023-07-29T13:13:43;4.40;;;1.70;;
71606;SDS011;60641;53.556;9.914;2023-07-29T13:16:11;7.60;;;1.70;;
71606;SDS011;60641;53.556;9.914;2023-07-29T13:18:39;3.70;;;1.60;;
71606;SDS011;60641;53.556;9.914;2023-07-29T13:21:06;4.00;;;1.60;;
71606;SDS011;60641;53.556;9.914;2023-07-29T13:23:33;5.30;;;2.10;;
71606;SDS011;60641;53.556;9.914;2023-07-29T13:25:59;5.00;;;1.70;;
71606;SDS011;60641;53.556;9.914;2023-07-29T13:28:25;5.00;;;1.50;;
71606;SDS011;60641;53.556;9.914;2023-07-29T13:30:52;3.90;;;1.60;;
71606;SDS011;60641;53.556;9.914;2023-07-29T13:33:18;3.60;;;1.40;;
71606;SDS011;60641;53.556;9.914;2023-07-29T13:35:45;5.00;;;1.30;;
71606;SDS011;60641;53.556;9.914;2023-07-29T13:38:11;4.00;;;1.70;;
71606;SDS011;60641;53.556;9.914;2023-07-29T13:40:38;4.40;;;1.60;;
71606;SDS011;60641;53.556;9.914;2023-07-29T13:43:04;5.20;;;1.60;;
71606;SDS011;60641;53.556;9.914;2023-07-29T13:45:31;5.80;;;1.80;;
71606;SDS011;60641;53.556;9.914;2023-07-29T13:47:57;4.30;;;1.70;;
71606;SDS011;60641;53.556;9.914;2023-07-29T13:50:24;4.00;;;1.70;;
71606;SDS011;60641;53.556;9.914;2023-07-29T13:52:50;4.40;;;1.50;;
71606;SDS011;60641;53.556;9.914;2023-07-29T13:55:17;4.00;;;1.60;;
71606;SDS011;60641;53.556;9.914;2023-07-29T13:57:43;3.90;;;1.50;;
71606;SDS011;60641;53.556;9.914;2023-07-29T14:00:10;4.70;;;1.70;;
71606;SDS011;60641;53.556;9.914;2023-07-29T14:02:37;5.70;;;2.00;;
71606;SDS011;60641;53.556;9.914;2023-07-29T14:05:03;6.70;;;1.60;;
71606;SDS011;60641;53.556;9.914;2023-07-29T14:07:30;4.20;;;1.80;;
71606;SDS011;60641;53.556;9.914;2023-07-29T14:09:56;4.00;;;1.60;;
71606;SDS011;60641;53.556;9.914;2023-07-29T14:12:23;4.60;;;1.50;;
71606;SDS011;60641;53.556;9.914;2023-07-29T14:14:49;6.00;;;1.60;;
71606;SDS011;60641;53.556;9.914;2023-07-29T14:17:15;4.80;;;1.60;;
71606;SDS011;60641;53.556;9.914;2023-07-29T14:19:42;5.40;;;1.90;;
71606;SDS011;60641;53.556;9.914;2023-07-29T14:22:08;4.30;;;1.60;;
71606;SDS011;60641;53.556;9.914;2023-07-29T14:24:35;4.30;;;1.50;;
71606;SDS011;60641;53.556;9.914;2023-07-29T14:27:02;6.50;;;1.60;;
71606;SDS011;60641;53.556;9.914;2023-07-29T14:29:29;5.10;;;1.60;;
71606;SDS011;60641;53.556;9.914;2023-07-29T14:31:55;6.10;;;1.40;;
71606;SDS011;60641;53.556;9.914;2023-07-29T14:34:22;5.30;;;1.60;;
71606;SDS011;60641;53.556;9.914;2023-07-29T14:36:48;4.40;;;1.60;;
71606;SDS011;60641;53.556;9.914;2023-07-29T14:39:14;5.00;;;1.60;;
71606;SDS011;60641;53.556;9.914;2023-07-29T14:41:41;4.00;;;1.50;;
71606;SDS011;60641;53.556;9.914;2023-07-29T14:44:07;5.50;;;1.90;;
71606;SDS011;60641;53.556;9.914;2023-07-29T14:46:34;7.40;;;1.90;;
71606;SDS011;60641;53.556;9.914;2023-07-29T14:49:00;4.10;;;1.60;;
71606;SDS011;60641;53.556;9.914;2023-07-29T14:51:27;4.80;;;1.40;;
71606;SDS011;60641;53.556;9.914;2023-07-29T14:53:53;6.60;;;1.90;;
71606;SDS011;60641;53.556;9.914;2023-07-29T14:56:19;4.50;;;1.50;;
71606;SDS011;60641;53.556;9.914;2023-07-29T14:58:46;3.50;;;1.30;;
71606;SDS011;60641;53.556;9.914;2023-07-29T15:01:12;4.20;;;1.50;;